sensor_id;sensor_type;location;lat;lon;timestamp;temperature;humidity
21834;DHT22;11079;51.092;3.458;2023-11-18T02:55:05;8.70;99.90
21834;DHT22;11079;51.092;3.458;2023-11-18T02:57:35;8.70;99.90
21834;DHT22;11079;51.092;3.458;2023-11-18T03:00:17;8.60;99.90
21834;DHT22;11079;51.092;3.458;2023-11-18T03:03:11;8.80;99.90
21834;DHT22;11079;51.092;3.458;2023-11-18T03:06:29;8.60;99.90
21834;DHT22;11079;51.092;3.458;2023-11-18T03:09:07;8.50;99.90
21834;DHT22;11079;51.092;3.458;2023-11-18T03:11:38;8.40;99.90
21834;DHT22;11079;51.092;3.458;2023-11-18T03:14:09;8.50;99.90
21834;DHT22;11079;51.092;3.458;2023-11-18T03:17:02;8.60;99.90
21834;DHT22;11079;51.092;3.458;2023-11-18T03:19:39;8.90;99.90
21834;DHT22;11079;51.092;3.458;2023-11-18T03:22:13;8.70;99.90
21834;DHT22;11079;51.092;3.458;2023-11-18T03:24:49;8.80;99.90
21834;DHT22;11079;51.092;3.458;2023-11-18T03:27:19;8.80;99.90
21834;DHT22;11079;51.092;3.458;2023-11-18T03:30:10;8.90;99.90
21834;DHT22;11079;51.092;3.458;2023-11-18T03:33:21;9.00;99.90
21834;DHT22;11079;51.092;3.458;2023-11-18T03:35:48;9.00;99.90
21834;DHT22;11079;51.092;3.458;2023-11-18T03:38:20;8.90;99.90
21834;DHT22;11079;51.092;3.458;2023-11-18T03:41:48;8.70;99.90
21834;DHT22;11079;51.092;3.458;2023-11-18T03:44:23;8.60;99.90
21834;DHT22;11079;51.092;3.458;2023-11-18T03:46:52;8.70;99.90
21834;DHT22;11079;51.092;3.458;2023-11-18T03:49:23;8.60;99.90
21834;DHT22;11079;51.092;3.458;2023-11-18T03:51:56;8.70;99.90
21834;DHT22;11079;51.092;3.458;2023-11-18T03:54:29;8.70;99.90
21834;DHT22;11079;51.092;3.458;2023-11-18T03:57:19;8.80;99.90
21834;DHT22;11079;51.092;3.458;2023-11-18T04:00:28;8.80;99.90
21834;DHT22;11079;51.092;3.458;2023-11-18T04:03:28;8.60;99.90
21834;DHT22;11079;51.092;3.458;2023-11-18T04:05:54;8.70;99.90
21834;DHT22;11079;51.092;3.458;2023-11-18T04:08:21;8.60;99.90
21834;DHT22;11079;51.092;3.458;2023-11-18T04:17:42;8.40;99.90
21834;DHT22;11079;51.092;3.458;2023-11-18T04:20:30;8.50;99.90
21834;DHT22;11079;51.092;3.458;2023-11-18T04:23:00;8.40;99.90
21834;DHT22;11079;51.092;3.458;2023-11-18T04:25:46;8.40;99.90
21834;DHT22;11079;51.092;3.458;2023-11-18T04:28:55;8.40;99.90
21834;DHT22;11079;51.092;3.458;2023-11-18T04:31:25;8.50;99.90
21834;DHT22;11079;51.092;3.458;2023-11-18T04:34:39;8.60;99.90
21834;DHT22;11079;51.092;3.458;2023-11-18T04:37:30;8.70;99.90
21834;DHT22;11079;51.092;3.458;2023-11-18T04:40:31;8.70;99.90
21834;DHT22;11079;51.092;3.458;2023-11-18T04:43:15;8.70;99.90
21834;DHT22;11079;51.092;3.458;2023-11-18T04:45:57;8.80;99.90
21834;DHT22;11079;51.092;3.458;2023-11-18T04:48:44;8.80;99.90
21834;DHT22;11079;51.092;3.458;2023-11-18T04:51:39;8.80;99.90
21834;DHT22;11079;51.092;3.458;2023-11-18T04:54:26;8.90;99.90
21834;DHT22;11079;51.092;3.458;2023-11-18T04:56:59;8.90;99.90
21834;DHT22;11079;51.092;3.458;2023-11-18T05:00:00;8.80;99.90
21834;DHT22;11079;51.092;3.458;2023-11-18T05:03:04;8.70;99.90
21834;DHT22;11079;51.092;3.458;2023-11-18T05:06:12;8.70;99.90
21834;DHT22;11079;51.092;3.458;2023-11-18T05:08:50;8.60;99.90
21834;DHT22;11079;51.092;3.458;2023-11-18T05:11:27;8.90;99.90
21834;DHT22;11079;51.092;3.458;2023-11-18T05:14:20;8.80;99.90
21834;DHT22;11079;51.092;3.458;2023-11-18T05:17:01;8.80;99.90
21834;DHT22;11079;51.092;3.458;2023-11-18T05:20:24;8.90;99.90
21834;DHT22;11079;51.092;3.458;2023-11-18T05:23:41;8.90;99.90
21834;DHT22;11079;51.092;3.458;2023-11-18T05:26:50;8.90;99.90
21834;DHT22;11079;51.092;3.458;2023-11-18T05:32:44;8.80;99.90
21834;DHT22;11079;51.092;3.458;2023-11-18T05:35:57;8.80;99.90
21834;DHT22;11079;51.092;3.458;2023-11-18T05:39:01;9.10;99.90
21834;DHT22;11079;51.092;3.458;2023-11-18T05:41:33;9.20;99.90
21834;DHT22;11079;51.092;3.458;2023-11-18T05:44:18;9.20;99.90
21834;DHT22;11079;51.092;3.458;2023-11-18T05:47:06;9.20;99.90
21834;DHT22;11079;51.092;3.458;2023-11-18T05:49:34;9.40;99.90
21834;DHT22;11079;51.092;3.458;2023-11-18T05:52:18;9.50;99.90
21834;DHT22;11079;51.092;3.458;2023-11-18T05:55:27;9.50;99.90
21834;DHT22;11079;51.092;3.458;2023-11-18T05:58:36;9.40;99.90
21834;DHT22;11079;51.092;3.458;2023-11-18T06:01:19;9.50;99.90
21834;DHT22;11079;51.092;3.458;2023-11-18T06:03:52;9.40;99.90
21834;DHT22;11079;51.092;3.458;2023-11-18T06:07:05;9.40;99.90
21834;DHT22;11079;51.092;3.458;2023-11-18T06:09:35;9.40;99.90
21834;DHT22;11079;51.092;3.458;2023-11-18T06:12:54;9.50;99.90
21834;DHT22;11079;51.092;3.458;2023-11-18T06:15:28;9.50;99.90
21834;DHT22;11079;51.092;3.458;2023-11-18T06:18:24;9.40;99.90
21834;DHT22;11079;51.092;3.458;2023-11-18T06:21:38;9.50;99.90
21834;DHT22;11079;51.092;3.458;2023-11-18T06:24:25;9.50;99.90
21834;DHT22;11079;51.092;3.458;2023-11-18T06:27:21;9.50;99.90
21834;DHT22;11079;51.092;3.458;2023-11-18T06:30:25;9.20;99.90
21834;DHT22;11079;51.092;3.458;2023-11-18T06:33:14;9.20;99.90
21834;DHT22;11079;51.092;3.458;2023-11-18T06:35:45;9.10;99.90
21834;DHT22;11079;51.092;3.458;2023-11-18T06:38:27;9.20;99.90
21834;DHT22;11079;51.092;3.458;2023-11-18T06:41:33;9.20;99.90
21834;DHT22;11079;51.092;3.458;2023-11-18T06:44:38;9.10;99.90
21834;DHT22;11079;51.092;3.458;2023-11-18T07:02:54;9.00;99.90
21834;DHT22;11079;51.092;3.458;2023-11-18T07:05:31;9.00;99.90
21834;DHT22;11079;51.092;3.458;2023-11-18T07:08:00;9.00;99.90
21834;DHT22;11079;51.092;3.458;2023-11-18T07:10:27;9.00;99.90
21834;DHT22;11079;51.092;3.458;2023-11-18T07:13:06;9.00;99.90
21834;DHT22;11079;51.092;3.458;2023-11-18T07:15:35;9.00;99.90
21834;DHT22;11079;51.092;3.458;2023-11-18T07:18:21;8.90;99.90
21834;DHT22;11079;51.092;3.458;2023-11-18T07:20:52;8.80;99.90
21834;DHT22;11079;51.092;3.458;2023-11-18T07:23:27;8.80;99.90
21834;DHT22;11079;51.092;3.458;2023-11-18T07:26:03;8.80;99.90
21834;DHT22;11079;51.092;3.458;2023-11-18T07:28:51;8.90;99.90
21834;DHT22;11079;51.092;3.458;2023-11-18T07:31:17;8.70;99.90
21834;DHT22;11079;51.092;3.458;2023-11-18T07:34:09;8.80;99.90
21834;DHT22;11079;51.092;3.458;2023-11-18T07:36:47;8.90;99.90
21834;DHT22;11079;51.092;3.458;2023-11-18T07:39:16;8.90;99.90
21834;DHT22;11079;51.092;3.458;2023-11-18T07:41:53;8.90;99.90
21834;DHT22;11079;51.092;3.458;2023-11-18T07:44:36;8.90;99.90
21834;DHT22;11079;51.092;3.458;2023-11-18T07:47:08;8.90;99.90
21834;DHT22;11079;51.092;3.458;2023-11-18T07:49:37;8.80;99.90
21834;DHT22;11079;51.092;3.458;2023-11-18T07:52:12;8.80;99.90
21834;DHT22;11079;51.092;3.458;2023-11-18T07:54:46;8.80;99.90
21834;DHT22;11079;51.092;3.458;2023-11-18T07:57:37;8.90;99.90
21834;DHT22;11079;51.092;3.458;2023-11-18T08:13:51;9.10;99.90
21834;DHT22;11079;51.092;3.458;2023-11-18T08:48:22;9.10;99.90
21834;DHT22;11079;51.092;3.458;2023-11-18T08:51:13;9.00;99.90
21834;DHT22;11079;51.092;3.458;2023-11-18T08:57:11;9.00;99.90
21834;DHT22;11079;51.092;3.458;2023-11-18T09:05:26;9.10;99.90
21834;DHT22;11079;51.092;3.458;2023-11-18T09:07:55;9.20;99.90
21834;DHT22;11079;51.092;3.458;2023-11-18T09:10:26;9.20;99.90
21834;DHT22;11079;51.092;3.458;2023-11-18T09:13:10;9.20;99.90
21834;DHT22;11079;51.092;3.458;2023-11-18T09:16:15;9.20;99.90
21834;DHT22;11079;51.092;3.458;2023-11-18T09:19:04;9.30;99.90
21834;DHT22;11079;51.092;3.458;2023-11-18T09:21:55;9.20;99.90
21834;DHT22;11079;51.092;3.458;2023-11-18T09:27:46;9.10;99.90
21834;DHT22;11079;51.092;3.458;2023-11-18T09:30:14;9.20;99.90
21834;DHT22;11079;51.092;3.458;2023-11-18T09:33:06;9.20;99.90
21834;DHT22;11079;51.092;3.458;2023-11-18T09:35:55;9.10;99.90
21834;DHT22;11079;51.092;3.458;2023-11-18T09:44:14;9.10;99.90
21834;DHT22;11079;51.092;3.458;2023-11-18T09:52:18;9.10;99.90
21834;DHT22;11079;51.092;3.458;2023-11-18T09:55:14;9.10;99.90
21834;DHT22;11079;51.092;3.458;2023-11-18T09:57:54;9.10;99.90
21834;DHT22;11079;51.092;3.458;2023-11-18T10:00:42;9.10;99.90
21834;DHT22;11079;51.092;3.458;2023-11-18T10:03:09;9.20;99.90
21834;DHT22;11079;51.092;3.458;2023-11-18T10:05:41;9.30;99.90
21834;DHT22;11079;51.092;3.458;2023-11-18T10:08:17;9.30;99.90
21834;DHT22;11079;51.092;3.458;2023-11-18T10:10:45;9.30;99.90
21834;DHT22;11079;51.092;3.458;2023-11-18T10:13:11;9.30;99.90
21834;DHT22;11079;51.092;3.458;2023-11-18T10:15:50;9.30;99.90
21834;DHT22;11079;51.092;3.458;2023-11-18T10:18:18;9.40;99.90
21834;DHT22;11079;51.092;3.458;2023-11-18T10:20:53;9.30;99.90
21834;DHT22;11079;51.092;3.458;2023-11-18T10:23:21;9.30;99.90
21834;DHT22;11079;51.092;3.458;2023-11-18T10:25:49;9.40;99.90
21834;DHT22;11079;51.092;3.458;2023-11-18T10:28:23;9.40;99.90
21834;DHT22;11079;51.092;3.458;2023-11-18T10:31:02;9.30;99.90
21834;DHT22;11079;51.092;3.458;2023-11-18T10:33:41;9.30;99.90
21834;DHT22;11079;51.092;3.458;2023-11-18T10:36:21;9.40;99.90
21834;DHT22;11079;51.092;3.458;2023-11-18T10:38:50;9.50;99.90
21834;DHT22;11079;51.092;3.458;2023-11-18T10:41:21;9.50;99.90
21834;DHT22;11079;51.092;3.458;2023-11-18T10:43:48;9.50;99.90
21834;DHT22;11079;51.092;3.458;2023-11-18T10:46:17;9.50;99.90
21834;DHT22;11079;51.092;3.458;2023-11-18T10:49:11;9.60;99.90
21834;DHT22;11079;51.092;3.458;2023-11-18T10:51:36;9.50;99.90
21834;DHT22;11079;51.092;3.458;2023-11-18T10:54:04;9.50;99.90
21834;DHT22;11079;51.092;3.458;2023-11-18T10:56:49;9.50;99.90
21834;DHT22;11079;51.092;3.458;2023-11-18T10:59:15;9.50;99.90
21834;DHT22;11079;51.092;3.458;2023-11-18T11:01:43;9.60;99.90
21834;DHT22;11079;51.092;3.458;2023-11-18T11:04:10;9.50;99.90
21834;DHT22;11079;51.092;3.458;2023-11-18T11:06:45;9.60;99.90
21834;DHT22;11079;51.092;3.458;2023-11-18T11:09:21;9.50;99.90
21834;DHT22;11079;51.092;3.458;2023-11-18T11:11:57;9.60;99.90
21834;DHT22;11079;51.092;3.458;2023-11-18T11:14:33;9.60;99.90
21834;DHT22;11079;51.092;3.458;2023-11-18T11:17:12;9.60;99.90
21834;DHT22;11079;51.092;3.458;2023-11-18T11:19:53;9.50;99.90
21834;DHT22;11079;51.092;3.458;2023-11-18T11:22:34;9.50;99.90
21834;DHT22;11079;51.092;3.458;2023-11-18T11:25:22;9.50;99.90
21834;DHT22;11079;51.092;3.458;2023-11-18T11:27:59;9.50;99.90
21834;DHT22;11079;51.092;3.458;2023-11-18T11:30:46;9.60;99.90
21834;DHT22;11079;51.092;3.458;2023-11-18T11:33:41;9.60;99.90
21834;DHT22;11079;51.092;3.458;2023-11-18T11:36:12;9.60;99.90
21834;DHT22;11079;51.092;3.458;2023-11-18T11:38:38;9.50;99.90
21834;DHT22;11079;51.092;3.458;2023-11-18T11:41:04;9.60;99.90
21834;DHT22;11079;51.092;3.458;2023-11-18T11:43:33;9.60;99.90
21834;DHT22;11079;51.092;3.458;2023-11-18T11:46:03;9.70;99.90
21834;DHT22;11079;51.092;3.458;2023-11-18T11:48:38;9.70;99.90
21834;DHT22;11079;51.092;3.458;2023-11-18T11:51:34;9.70;99.90
21834;DHT22;11079;51.092;3.458;2023-11-18T11:54:15;9.80;99.90
21834;DHT22;11079;51.092;3.458;2023-11-18T11:56:49;9.80;99.90
21834;DHT22;11079;51.092;3.458;2023-11-18T11:59:37;9.70;99.90
21834;DHT22;11079;51.092;3.458;2023-11-18T12:02:22;9.80;99.90
21834;DHT22;11079;51.092;3.458;2023-11-18T12:04:53;9.80;99.90
21834;DHT22;11079;51.092;3.458;2023-11-18T12:07:21;9.90;99.90
21834;DHT22;11079;51.092;3.458;2023-11-18T12:09:54;9.80;99.90
21834;DHT22;11079;51.092;3.458;2023-11-18T12:12:25;9.90;99.90
21834;DHT22;11079;51.092;3.458;2023-11-18T12:14:57;9.90;99.90
21834;DHT22;11079;51.092;3.458;2023-11-18T12:17:26;9.90;99.90
21834;DHT22;11079;51.092;3.458;2023-11-18T12:19:58;10.00;99.90
21834;DHT22;11079;51.092;3.458;2023-11-18T12:23:04;10.00;99.90
21834;DHT22;11079;51.092;3.458;2023-11-18T12:25:39;10.00;99.90
21834;DHT22;11079;51.092;3.458;2023-11-18T12:28:15;10.10;99.90
21834;DHT22;11079;51.092;3.458;2023-11-18T12:30:42;10.10;99.90
21834;DHT22;11079;51.092;3.458;2023-11-18T12:33:18;10.10;99.90
21834;DHT22;11079;51.092;3.458;2023-11-18T12:36:09;10.10;99.90
21834;DHT22;11079;51.092;3.458;2023-11-18T12:41:43;10.20;99.90
21834;DHT22;11079;51.092;3.458;2023-11-18T12:46:51;10.20;99.90
21834;DHT22;11079;51.092;3.458;2023-11-18T12:49:37;10.10;99.90
21834;DHT22;11079;51.092;3.458;2023-11-18T12:52:07;10.10;99.90
21834;DHT22;11079;51.092;3.458;2023-11-18T12:54:34;10.20;99.90
21834;DHT22;11079;51.092;3.458;2023-11-18T12:57:03;10.20;99.90
21834;DHT22;11079;51.092;3.458;2023-11-18T12:59:33;10.30;99.90
21834;DHT22;11079;51.092;3.458;2023-11-18T13:01:59;10.30;99.90
21834;DHT22;11079;51.092;3.458;2023-11-18T13:04:31;10.30;99.90
21834;DHT22;11079;51.092;3.458;2023-11-18T13:06:59;10.20;99.90
21834;DHT22;11079;51.092;3.458;2023-11-18T13:09:26;10.30;99.90
21834;DHT22;11079;51.092;3.458;2023-11-18T13:12:02;10.30;99.90
21834;DHT22;11079;51.092;3.458;2023-11-18T13:14:30;10.30;99.90
21834;DHT22;11079;51.092;3.458;2023-11-18T13:17:02;10.30;99.90
21834;DHT22;11079;51.092;3.458;2023-11-18T13:19:31;10.30;99.90
21834;DHT22;11079;51.092;3.458;2023-11-18T13:22:01;10.30;99.90
21834;DHT22;11079;51.092;3.458;2023-11-18T13:24:32;10.40;99.90
21834;DHT22;11079;51.092;3.458;2023-11-18T13:26:59;10.50;99.90
21834;DHT22;11079;51.092;3.458;2023-11-18T13:29:29;10.50;99.90
21834;DHT22;11079;51.092;3.458;2023-11-18T13:31:55;10.50;99.90
21834;DHT22;11079;51.092;3.458;2023-11-18T13:34:23;10.60;99.90
21834;DHT22;11079;51.092;3.458;2023-11-18T13:36:49;10.50;99.90
21834;DHT22;11079;51.092;3.458;2023-11-18T13:39:19;10.50;99.90
21834;DHT22;11079;51.092;3.458;2023-11-18T13:41:48;10.50;99.90
21834;DHT22;11079;51.092;3.458;2023-11-18T13:44:34;10.60;99.90
21834;DHT22;11079;51.092;3.458;2023-11-18T13:47:01;10.60;99.90
21834;DHT22;11079;51.092;3.458;2023-11-18T13:49:31;10.70;99.90
21834;DHT22;11079;51.092;3.458;2023-11-18T13:51:57;10.70;99.90
21834;DHT22;11079;51.092;3.458;2023-11-18T13:54:24;10.70;99.90
21834;DHT22;11079;51.092;3.458;2023-11-18T13:56:51;10.70;99.90
21834;DHT22;11079;51.092;3.458;2023-11-18T13:59:18;10.70;99.90
21834;DHT22;11079;51.092;3.458;2023-11-18T14:01:45;10.80;99.90
21834;DHT22;11079;51.092;3.458;2023-11-18T14:04:11;10.80;99.90
21834;DHT22;11079;51.092;3.458;2023-11-18T14:06:38;10.90;99.90
21834;DHT22;11079;51.092;3.458;2023-11-18T14:09:05;10.90;99.90
21834;DHT22;11079;51.092;3.458;2023-11-18T14:11:31;11.00;99.90
21834;DHT22;11079;51.092;3.458;2023-11-18T14:13:56;10.90;99.90
21834;DHT22;11079;51.092;3.458;2023-11-18T14:16:24;10.90;99.90
21834;DHT22;11079;51.092;3.458;2023-11-18T14:18:51;10.90;99.90
21834;DHT22;11079;51.092;3.458;2023-11-18T14:21:18;11.10;99.90
21834;DHT22;11079;51.092;3.458;2023-11-18T14:23:43;11.00;99.90
21834;DHT22;11079;51.092;3.458;2023-11-18T14:26:10;11.00;99.90
21834;DHT22;11079;51.092;3.458;2023-11-18T14:28:36;11.00;99.90
21834;DHT22;11079;51.092;3.458;2023-11-18T14:31:02;11.00;99.90
21834;DHT22;11079;51.092;3.458;2023-11-18T14:33:33;11.00;99.90
21834;DHT22;11079;51.092;3.458;2023-11-18T14:35:59;11.10;99.90
21834;DHT22;11079;51.092;3.458;2023-11-18T14:38:26;11.10;99.90
21834;DHT22;11079;51.092;3.458;2023-11-18T14:40:52;11.10;99.90
21834;DHT22;11079;51.092;3.458;2023-11-18T14:43:19;11.10;99.90
21834;DHT22;11079;51.092;3.458;2023-11-18T14:45:44;11.10;99.90
21834;DHT22;11079;51.092;3.458;2023-11-18T14:48:10;11.20;99.90
21834;DHT22;11079;51.092;3.458;2023-11-18T14:50:36;11.30;99.90
21834;DHT22;11079;51.092;3.458;2023-11-18T14:53:02;11.30;99.90
21834;DHT22;11079;51.092;3.458;2023-11-18T14:55:29;11.30;99.90
21834;DHT22;11079;51.092;3.458;2023-11-18T14:57:56;11.30;99.90
21834;DHT22;11079;51.092;3.458;2023-11-18T15:00:22;11.40;99.90
21834;DHT22;11079;51.092;3.458;2023-11-18T15:02:51;11.40;99.90
21834;DHT22;11079;51.092;3.458;2023-11-18T15:05:18;11.50;99.90
21834;DHT22;11079;51.092;3.458;2023-11-18T15:07:52;11.50;99.90
21834;DHT22;11079;51.092;3.458;2023-11-18T15:10:20;11.50;99.90
21834;DHT22;11079;51.092;3.458;2023-11-18T15:12:47;11.50;99.90
21834;DHT22;11079;51.092;3.458;2023-11-18T15:15:12;11.50;99.90
21834;DHT22;11079;51.092;3.458;2023-11-18T15:17:47;11.60;99.90
21834;DHT22;11079;51.092;3.458;2023-11-18T15:20:17;11.70;99.90
21834;DHT22;11079;51.092;3.458;2023-11-18T15:22:46;11.70;99.90
21834;DHT22;11079;51.092;3.458;2023-11-18T15:25:12;11.70;99.90
21834;DHT22;11079;51.092;3.458;2023-11-18T15:27:40;11.70;99.90
21834;DHT22;11079;51.092;3.458;2023-11-18T15:30:07;11.70;99.90
21834;DHT22;11079;51.092;3.458;2023-11-18T15:32:37;11.80;99.90
21834;DHT22;11079;51.092;3.458;2023-11-18T15:35:03;11.90;99.90
21834;DHT22;11079;51.092;3.458;2023-11-18T15:37:28;11.90;99.90
21834;DHT22;11079;51.092;3.458;2023-11-18T15:39:54;12.00;99.90
21834;DHT22;11079;51.092;3.458;2023-11-18T15:42:20;12.10;99.90
21834;DHT22;11079;51.092;3.458;2023-11-18T15:44:46;12.20;99.90
21834;DHT22;11079;51.092;3.458;2023-11-18T15:47:12;12.30;99.90
21834;DHT22;11079;51.092;3.458;2023-11-18T15:49:40;12.20;99.90
21834;DHT22;11079;51.092;3.458;2023-11-18T15:52:06;12.20;99.90
21834;DHT22;11079;51.092;3.458;2023-11-18T15:54:36;12.20;99.90
21834;DHT22;11079;51.092;3.458;2023-11-18T15:57:02;12.30;99.90
21834;DHT22;11079;51.092;3.458;2023-11-18T15:59:28;12.30;99.90
21834;DHT22;11079;51.092;3.458;2023-11-18T16:01:54;12.30;99.90
21834;DHT22;11079;51.092;3.458;2023-11-18T16:04:19;12.30;99.90
21834;DHT22;11079;51.092;3.458;2023-11-18T16:06:45;12.40;99.90
21834;DHT22;11079;51.092;3.458;2023-11-18T16:09:10;12.40;99.90
21834;DHT22;11079;51.092;3.458;2023-11-18T16:11:36;12.40;99.90
21834;DHT22;11079;51.092;3.458;2023-11-18T16:14:02;12.40;99.90
21834;DHT22;11079;51.092;3.458;2023-11-18T16:16:28;12.40;99.90
21834;DHT22;11079;51.092;3.458;2023-11-18T16:18:54;12.40;99.90
21834;DHT22;11079;51.092;3.458;2023-11-18T16:21:21;12.50;99.90
21834;DHT22;11079;51.092;3.458;2023-11-18T16:23:47;12.40;99.90
21834;DHT22;11079;51.092;3.458;2023-11-18T16:26:13;12.50;99.90
21834;DHT22;11079;51.092;3.458;2023-11-18T16:28:38;12.50;99.90
21834;DHT22;11079;51.092;3.458;2023-11-18T16:31:08;12.50;99.90
21834;DHT22;11079;51.092;3.458;2023-11-18T16:33:34;12.60;99.90
21834;DHT22;11079;51.092;3.458;2023-11-18T16:36:00;12.60;99.90
21834;DHT22;11079;51.092;3.458;2023-11-18T16:38:26;12.60;99.90
21834;DHT22;11079;51.092;3.458;2023-11-18T16:40:54;12.60;99.90
21834;DHT22;11079;51.092;3.458;2023-11-18T16:43:20;12.60;99.90
21834;DHT22;11079;51.092;3.458;2023-11-18T16:45:45;12.70;99.90
21834;DHT22;11079;51.092;3.458;2023-11-18T16:48:11;12.70;99.90
21834;DHT22;11079;51.092;3.458;2023-11-18T16:50:37;12.70;99.90
21834;DHT22;11079;51.092;3.458;2023-11-18T16:53:05;12.80;99.90
21834;DHT22;11079;51.092;3.458;2023-11-18T16:55:32;12.70;99.90
21834;DHT22;11079;51.092;3.458;2023-11-18T16:58:02;12.70;99.90
21834;DHT22;11079;51.092;3.458;2023-11-18T17:00:30;12.80;99.90
21834;DHT22;11079;51.092;3.458;2023-11-18T17:02:58;12.80;99.90
21834;DHT22;11079;51.092;3.458;2023-11-18T17:05:26;12.80;99.90
21834;DHT22;11079;51.092;3.458;2023-11-18T17:08:08;12.80;99.90
21834;DHT22;11079;51.092;3.458;2023-11-18T17:10:33;12.90;99.90
21834;DHT22;11079;51.092;3.458;2023-11-18T17:13:02;12.80;99.90
21834;DHT22;11079;51.092;3.458;2023-11-18T17:15:36;13.00;99.90
21834;DHT22;11079;51.092;3.458;2023-11-18T17:18:02;13.00;99.90
21834;DHT22;11079;51.092;3.458;2023-11-18T17:20:35;12.90;99.90
21834;DHT22;11079;51.092;3.458;2023-11-18T17:23:04;13.00;99.90
21834;DHT22;11079;51.092;3.458;2023-11-18T17:25:37;13.10;99.90
21834;DHT22;11079;51.092;3.458;2023-11-18T17:28:04;13.00;99.90
21834;DHT22;11079;51.092;3.458;2023-11-18T17:30:30;13.00;99.90
21834;DHT22;11079;51.092;3.458;2023-11-18T17:33:00;13.10;99.90
21834;DHT22;11079;51.092;3.458;2023-11-18T17:35:27;13.10;99.90
21834;DHT22;11079;51.092;3.458;2023-11-18T17:37:53;13.10;99.90
21834;DHT22;11079;51.092;3.458;2023-11-18T17:40:19;13.10;99.90
21834;DHT22;11079;51.092;3.458;2023-11-18T17:42:49;13.00;99.90
21834;DHT22;11079;51.092;3.458;2023-11-18T21:32:28;14.30;99.90
21834;DHT22;11079;51.092;3.458;2023-11-18T21:35:29;14.40;99.90
21834;DHT22;11079;51.092;3.458;2023-11-18T21:38:13;14.40;99.90
21834;DHT22;11079;51.092;3.458;2023-11-18T21:40:41;14.30;99.90
21834;DHT22;11079;51.092;3.458;2023-11-18T21:43:09;14.30;99.90
21834;DHT22;11079;51.092;3.458;2023-11-18T21:45:39;14.40;99.90
21834;DHT22;11079;51.092;3.458;2023-11-18T21:48:26;14.40;99.90
21834;DHT22;11079;51.092;3.458;2023-11-18T21:50:55;14.40;99.90
21834;DHT22;11079;51.092;3.458;2023-11-18T21:53:27;14.40;99.90
21834;DHT22;11079;51.092;3.458;2023-11-18T21:59:41;14.60;99.90
21834;DHT22;11079;51.092;3.458;2023-11-18T22:02:10;14.40;99.90
21834;DHT22;11079;51.092;3.458;2023-11-18T22:04:37;14.40;99.90
21834;DHT22;11079;51.092;3.458;2023-11-18T22:07:07;14.40;99.90
21834;DHT22;11079;51.092;3.458;2023-11-18T22:09:48;14.50;99.90
21834;DHT22;11079;51.092;3.458;2023-11-18T22:12:13;14.50;99.90
21834;DHT22;11079;51.092;3.458;2023-11-18T22:14:48;14.50;99.90
21834;DHT22;11079;51.092;3.458;2023-11-18T22:20:38;14.50;99.90
21834;DHT22;11079;51.092;3.458;2023-11-18T22:23:08;14.50;99.90
21834;DHT22;11079;51.092;3.458;2023-11-18T22:28:58;14.60;99.90
21834;DHT22;11079;51.092;3.458;2023-11-18T22:31:26;14.70;99.90
21834;DHT22;11079;51.092;3.458;2023-11-18T22:33:56;14.70;99.90
21834;DHT22;11079;51.092;3.458;2023-11-18T22:36:31;14.60;99.90
21834;DHT22;11079;51.092;3.458;2023-11-18T22:39:08;14.60;99.90
21834;DHT22;11079;51.092;3.458;2023-11-18T22:41:42;14.50;99.90
21834;DHT22;11079;51.092;3.458;2023-11-18T22:44:10;14.70;99.90
21834;DHT22;11079;51.092;3.458;2023-11-18T22:46:39;14.80;99.90
21834;DHT22;11079;51.092;3.458;2023-11-18T22:49:06;14.80;99.90
21834;DHT22;11079;51.092;3.458;2023-11-18T22:51:41;14.80;99.90
21834;DHT22;11079;51.092;3.458;2023-11-18T22:54:07;14.80;99.90
21834;DHT22;11079;51.092;3.458;2023-11-18T22:56:39;14.80;99.90
21834;DHT22;11079;51.092;3.458;2023-11-18T22:59:13;14.80;99.90
21834;DHT22;11079;51.092;3.458;2023-11-18T23:01:44;14.70;99.90
21834;DHT22;11079;51.092;3.458;2023-11-18T23:04:11;14.60;99.90
21834;DHT22;11079;51.092;3.458;2023-11-18T23:06:42;14.70;99.90
21834;DHT22;11079;51.092;3.458;2023-11-18T23:09:28;14.70;99.90
21834;DHT22;11079;51.092;3.458;2023-11-18T23:12:09;14.70;99.90
21834;DHT22;11079;51.092;3.458;2023-11-18T23:14:38;14.80;99.90
21834;DHT22;11079;51.092;3.458;2023-11-18T23:17:04;14.80;99.90
21834;DHT22;11079;51.092;3.458;2023-11-18T23:19:31;14.60;99.90
21834;DHT22;11079;51.092;3.458;2023-11-18T23:21:59;14.70;99.90
21834;DHT22;11079;51.092;3.458;2023-11-18T23:24:32;14.70;99.90
21834;DHT22;11079;51.092;3.458;2023-11-18T23:26:58;14.70;99.90
21834;DHT22;11079;51.092;3.458;2023-11-18T23:29:23;14.70;99.90
21834;DHT22;11079;51.092;3.458;2023-11-18T23:31:49;14.60;99.90
21834;DHT22;11079;51.092;3.458;2023-11-18T23:34:19;14.60;99.90
21834;DHT22;11079;51.092;3.458;2023-11-18T23:36:52;14.60;99.90
21834;DHT22;11079;51.092;3.458;2023-11-18T23:39:18;14.50;99.90
21834;DHT22;11079;51.092;3.458;2023-11-18T23:41:49;14.60;99.90
21834;DHT22;11079;51.092;3.458;2023-11-18T23:44:15;14.50;99.90
21834;DHT22;11079;51.092;3.458;2023-11-18T23:46:46;14.40;99.90
21834;DHT22;11079;51.092;3.458;2023-11-18T23:49:14;14.40;99.90
21834;DHT22;11079;51.092;3.458;2023-11-18T23:51:42;14.30;99.90
21834;DHT22;11079;51.092;3.458;2023-11-18T23:54:07;14.40;99.90
21834;DHT22;11079;51.092;3.458;2023-11-18T23:56:33;14.30;99.90
21834;DHT22;11079;51.092;3.458;2023-11-18T23:59:00;14.30;99.90
